Flight Track Log - Related Links

Times and Time Zones

All times are in EST time to prevent confusion due to time zone crossing. See the CDG4712 flight status page for this flight to view local times or setup timezone preferences in your user account.


Time Position Orientation Groundspeed Altitude Reporting Facility
EST Latitude Longitude Course Direction KTS MPH feet Rate Location/Type
Wed 11:46:00 PM 24.0384 114.6061 39° Northeast  Level Estimated
Wed 11:47:00 PM 24.1645 114.7185 39° Northeast  Level Estimated
Wed 11:48:00 PM 24.2905 114.8310 39° Northeast  Level Estimated
Wed 11:49:00 PM 24.4165 114.9438 39° Northeast  Level Estimated
Wed 11:50:00 PM 24.5423 115.0568 39° Northeast  Level Estimated
Wed 11:51:00 PM 24.6681 115.1701 39° Northeast  Level Estimated
Wed 11:52:00 PM 24.7938 115.2835 39° Northeast  Level Estimated
Wed 11:53:00 PM 24.9193 115.3972 39° Northeast  Level Estimated
Wed 11:54:00 PM 25.0448 115.5112 39° Northeast  Level Estimated
Wed 11:55:00 PM 25.1703 115.6253 39° Northeast  Level Estimated
Wed 11:56:00 PM 25.2956 115.7397 40° Northeast  Level Estimated
Wed 11:57:00 PM 25.4208 115.8543 40° Northeast  Level Estimated
Wed 11:58:00 PM 25.5460 115.9692 40° Northeast  Level Estimated
Wed 11:59:00 PM 25.6710 116.0843 40° Northeast  Level Estimated
Thu 12:00:00 AM 25.7960 116.1997 40° Northeast  Level Estimated
Thu 12:01:00 AM 25.9209 116.3153 40° Northeast  Level Estimated
Thu 12:02:00 AM 26.0457 116.4311 40° Northeast  Level Estimated
Thu 12:03:00 AM 26.1704 116.5472 40° Northeast  Level Estimated
Thu 12:04:00 AM 26.2950 116.6635 40° Northeast  Level Estimated
Thu 12:05:00 AM 26.4195 116.7801 40° Northeast  Level Estimated
Thu 12:06:00 AM 26.5439 116.8969 40° Northeast  Level Estimated
Thu 12:07:00 AM 26.6682 117.0140 40° Northeast  Level Estimated
Thu 12:08:00 AM 26.7924 117.1314 40° Northeast  Level Estimated
Thu 12:09:00 AM 26.9166 117.2490 40° Northeast  Level Estimated
Thu 12:10:00 AM 27.0406 117.3668 40° Northeast  Level Estimated
Thu 12:11:00 AM 27.1645 117.4850 40° Northeast  Level Estimated
Thu 12:12:00 AM 27.2883 117.6033 40° Northeast  Level Estimated
Thu 12:13:00 AM 27.4121 117.7220 40° Northeast  Level Estimated
Thu 12:14:00 AM 27.5357 117.8409 40° Northeast  Level Estimated
Thu 12:15:00 AM 27.6592 117.9601 41° Northeast  Level Estimated
Thu 12:16:00 AM 27.7019 118.0014 41° Northeast  Level Estimated
Thu 12:17:00 AM 27.7019 118.0014 348° North  Level Estimated
Thu 12:18:00 AM 27.7019 118.0014 348° North  Level Estimated
Thu 12:19:00 AM 27.7019 118.0014 348° North  Level Estimated
Thu 12:20:00 AM 27.7019 118.0014 348° North  Level Estimated
Thu 12:21:00 AM 27.7019 118.0014 348° North  Level Estimated
Thu 12:22:00 AM 27.7019 118.0014 348° North  Level Estimated
Thu 12:23:00 AM 27.7019 118.0014 348° North  Level Estimated
Thu 12:24:00 AM 27.7019 118.0014 348° North  Level Estimated
Thu 12:25:00 AM 27.7019 118.0014 348° North  Level Estimated
Thu 12:26:00 AM 27.7019 118.0014 348° North  Level Estimated
Thu 12:27:00 AM 27.7019 118.0014 348° North  Level Estimated
Thu 12:28:00 AM 27.7019 118.0014 348° North  Level Estimated
Thu 12:29:00 AM 27.7019 118.0014 348° North  Level Estimated
Thu 12:30:00 AM 27.7019 118.0014 348° North  Level Estimated
Thu 12:31:00 AM 27.7019 118.0014 348° North  Level Estimated
Thu 12:32:00 AM 27.7019 118.0014 348° North  Level Estimated
Thu 12:33:00 AM 27.7019 118.0014 348° North  Level Estimated
Thu 12:34:00 AM 27.7019 118.0014 348° North  Level Estimated
Thu 12:35:00 AM 27.7019 118.0014 348° North  Level Estimated
Thu 12:36:00 AM 27.7019 118.0014 348° North  Level Estimated

Login

Don't have an account? Register now (free) for customized features, flight alerts, and more!